sensor_id;sensor_type;location;lat;lon;timestamp;temperature;humidity
19781;DHT22;10050;55.492;13.506;2023-04-29T00:01:04;6.00;99.90
19781;DHT22;10050;55.492;13.506;2023-04-29T00:03:30;5.90;99.90
19781;DHT22;10050;55.492;13.506;2023-04-29T00:05:59;5.90;99.90
19781;DHT22;10050;55.492;13.506;2023-04-29T00:08:28;5.90;99.90
19781;DHT22;10050;55.492;13.506;2023-04-29T00:10:54;5.90;99.90
19781;DHT22;10050;55.492;13.506;2023-04-29T00:13:20;5.90;99.90
19781;DHT22;10050;55.492;13.506;2023-04-29T00:15:45;5.90;99.90
19781;DHT22;10050;55.492;13.506;2023-04-29T00:18:11;5.90;99.90
19781;DHT22;10050;55.492;13.506;2023-04-29T00:20:38;5.90;99.90
19781;DHT22;10050;55.492;13.506;2023-04-29T00:23:04;5.90;99.90
19781;DHT22;10050;55.492;13.506;2023-04-29T00:25:30;5.90;99.90
19781;DHT22;10050;55.492;13.506;2023-04-29T00:27:56;5.90;99.90
19781;DHT22;10050;55.492;13.506;2023-04-29T00:30:29;5.80;99.90
19781;DHT22;10050;55.492;13.506;2023-04-29T00:32:55;5.80;99.90
19781;DHT22;10050;55.492;13.506;2023-04-29T00:35:21;5.80;99.90
19781;DHT22;10050;55.492;13.506;2023-04-29T00:37:46;5.80;99.90
19781;DHT22;10050;55.492;13.506;2023-04-29T00:40:12;5.80;99.90
19781;DHT22;10050;55.492;13.506;2023-04-29T00:42:42;5.80;99.90
19781;DHT22;10050;55.492;13.506;2023-04-29T00:45:10;5.80;99.90
19781;DHT22;10050;55.492;13.506;2023-04-29T00:47:37;5.70;99.90
19781;DHT22;10050;55.492;13.506;2023-04-29T00:50:04;5.70;99.90
19781;DHT22;10050;55.492;13.506;2023-04-29T00:52:30;5.70;99.90
19781;DHT22;10050;55.492;13.506;2023-04-29T00:54:57;5.70;99.90
19781;DHT22;10050;55.492;13.506;2023-04-29T00:57:24;5.70;99.90
19781;DHT22;10050;55.492;13.506;2023-04-29T00:59:54;5.70;99.90
19781;DHT22;10050;55.492;13.506;2023-04-29T01:02:19;5.70;99.90
19781;DHT22;10050;55.492;13.506;2023-04-29T01:04:46;5.70;99.90
19781;DHT22;10050;55.492;13.506;2023-04-29T01:07:29;5.60;99.90
19781;DHT22;10050;55.492;13.506;2023-04-29T01:15:48;5.60;99.90
19781;DHT22;10050;55.492;13.506;2023-04-29T01:18:41;5.60;99.90
19781;DHT22;10050;55.492;13.506;2023-04-29T01:21:10;5.50;99.90
19781;DHT22;10050;55.492;13.506;2023-04-29T01:23:36;5.50;99.90
19781;DHT22;10050;55.492;13.506;2023-04-29T01:26:01;5.50;99.90
19781;DHT22;10050;55.492;13.506;2023-04-29T01:31:31;5.50;99.90
19781;DHT22;10050;55.492;13.506;2023-04-29T01:34:24;5.40;99.90
19781;DHT22;10050;55.492;13.506;2023-04-29T01:37:34;5.40;99.90
19781;DHT22;10050;55.492;13.506;2023-04-29T01:40:29;5.40;99.90
19781;DHT22;10050;55.492;13.506;2023-04-29T01:43:01;5.40;99.90
19781;DHT22;10050;55.492;13.506;2023-04-29T01:45:29;5.40;99.90
19781;DHT22;10050;55.492;13.506;2023-04-29T01:47:56;5.40;99.90
19781;DHT22;10050;55.492;13.506;2023-04-29T01:50:23;5.30;99.90
19781;DHT22;10050;55.492;13.506;2023-04-29T01:52:48;5.30;99.90
19781;DHT22;10050;55.492;13.506;2023-04-29T01:55:14;5.30;99.90
19781;DHT22;10050;55.492;13.506;2023-04-29T01:57:40;5.20;99.90
19781;DHT22;10050;55.492;13.506;2023-04-29T02:00:06;5.20;99.90
19781;DHT22;10050;55.492;13.506;2023-04-29T02:02:33;5.20;99.90
19781;DHT22;10050;55.492;13.506;2023-04-29T02:04:59;5.20;99.90
19781;DHT22;10050;55.492;13.506;2023-04-29T02:07:24;5.10;99.90
19781;DHT22;10050;55.492;13.506;2023-04-29T02:09:50;5.10;99.90
19781;DHT22;10050;55.492;13.506;2023-04-29T02:12:16;5.10;99.90
19781;DHT22;10050;55.492;13.506;2023-04-29T02:14:42;5.00;99.90
19781;DHT22;10050;55.492;13.506;2023-04-29T02:17:07;5.00;99.90
19781;DHT22;10050;55.492;13.506;2023-04-29T02:19:33;5.00;99.90
19781;DHT22;10050;55.492;13.506;2023-04-29T02:21:59;5.00;99.90
19781;DHT22;10050;55.492;13.506;2023-04-29T02:24:25;5.00;99.90
19781;DHT22;10050;55.492;13.506;2023-04-29T02:26:51;5.00;99.90
19781;DHT22;10050;55.492;13.506;2023-04-29T02:29:17;5.00;99.90
19781;DHT22;10050;55.492;13.506;2023-04-29T02:31:43;5.00;99.90
19781;DHT22;10050;55.492;13.506;2023-04-29T02:34:09;4.90;99.90
19781;DHT22;10050;55.492;13.506;2023-04-29T02:36:34;4.90;99.90
19781;DHT22;10050;55.492;13.506;2023-04-29T02:39:00;4.90;99.90
19781;DHT22;10050;55.492;13.506;2023-04-29T02:41:25;4.90;99.90
19781;DHT22;10050;55.492;13.506;2023-04-29T02:43:51;4.80;99.90
19781;DHT22;10050;55.492;13.506;2023-04-29T02:46:17;4.80;99.90
19781;DHT22;10050;55.492;13.506;2023-04-29T02:48:44;4.80;99.90
19781;DHT22;10050;55.492;13.506;2023-04-29T02:51:09;4.80;99.90
19781;DHT22;10050;55.492;13.506;2023-04-29T02:53:35;4.80;99.90
19781;DHT22;10050;55.492;13.506;2023-04-29T02:56:01;4.70;99.90
19781;DHT22;10050;55.492;13.506;2023-04-29T02:58:26;4.70;99.90
19781;DHT22;10050;55.492;13.506;2023-04-29T03:00:52;4.70;99.90
19781;DHT22;10050;55.492;13.506;2023-04-29T03:03:18;4.70;99.90
19781;DHT22;10050;55.492;13.506;2023-04-29T03:05:43;4.60;99.90
19781;DHT22;10050;55.492;13.506;2023-04-29T03:08:09;4.60;99.90
19781;DHT22;10050;55.492;13.506;2023-04-29T03:10:35;4.60;99.90
19781;DHT22;10050;55.492;13.506;2023-04-29T03:13:01;4.60;99.90
19781;DHT22;10050;55.492;13.506;2023-04-29T03:15:27;4.60;99.90
19781;DHT22;10050;55.492;13.506;2023-04-29T03:17:53;4.60;99.90
19781;DHT22;10050;55.492;13.506;2023-04-29T03:20:21;4.60;99.90
19781;DHT22;10050;55.492;13.506;2023-04-29T03:22:46;4.60;99.90
19781;DHT22;10050;55.492;13.506;2023-04-29T03:25:12;4.60;99.90
19781;DHT22;10050;55.492;13.506;2023-04-29T03:27:38;4.60;99.90
19781;DHT22;10050;55.492;13.506;2023-04-29T03:30:04;4.60;99.90
19781;DHT22;10050;55.492;13.506;2023-04-29T03:32:31;4.50;99.90
19781;DHT22;10050;55.492;13.506;2023-04-29T03:34:57;4.60;99.90
19781;DHT22;10050;55.492;13.506;2023-04-29T03:37:22;4.60;99.90
19781;DHT22;10050;55.492;13.506;2023-04-29T03:39:48;4.60;99.90
19781;DHT22;10050;55.492;13.506;2023-04-29T03:42:14;4.60;99.90
19781;DHT22;10050;55.492;13.506;2023-04-29T03:44:39;4.60;99.90
19781;DHT22;10050;55.492;13.506;2023-04-29T03:47:05;4.60;99.90
19781;DHT22;10050;55.492;13.506;2023-04-29T03:49:31;4.60;99.90
19781;DHT22;10050;55.492;13.506;2023-04-29T03:51:56;4.60;99.90
19781;DHT22;10050;55.492;13.506;2023-04-29T03:54:22;4.60;99.90
19781;DHT22;10050;55.492;13.506;2023-04-29T03:56:48;4.70;99.90
19781;DHT22;10050;55.492;13.506;2023-04-29T03:59:13;4.70;99.90
19781;DHT22;10050;55.492;13.506;2023-04-29T04:01:39;4.70;99.90
19781;DHT22;10050;55.492;13.506;2023-04-29T04:04:05;4.80;99.90
19781;DHT22;10050;55.492;13.506;2023-04-29T04:06:31;4.80;99.90
19781;DHT22;10050;55.492;13.506;2023-04-29T04:08:56;4.80;99.90
19781;DHT22;10050;55.492;13.506;2023-04-29T04:11:22;4.80;99.90
19781;DHT22;10050;55.492;13.506;2023-04-29T04:13:48;4.80;99.90
19781;DHT22;10050;55.492;13.506;2023-04-29T04:16:14;4.90;99.90
19781;DHT22;10050;55.492;13.506;2023-04-29T04:18:39;5.00;99.90
19781;DHT22;10050;55.492;13.506;2023-04-29T04:21:07;5.00;99.90
19781;DHT22;10050;55.492;13.506;2023-04-29T04:23:32;5.10;99.90
19781;DHT22;10050;55.492;13.506;2023-04-29T04:25:58;5.10;99.90
19781;DHT22;10050;55.492;13.506;2023-04-29T04:28:24;5.10;99.90
19781;DHT22;10050;55.492;13.506;2023-04-29T04:30:49;5.10;99.90
19781;DHT22;10050;55.492;13.506;2023-04-29T04:33:15;5.20;99.90
19781;DHT22;10050;55.492;13.506;2023-04-29T04:35:41;5.30;99.90
19781;DHT22;10050;55.492;13.506;2023-04-29T04:38:07;5.30;99.90
19781;DHT22;10050;55.492;13.506;2023-04-29T04:40:33;5.30;99.90
19781;DHT22;10050;55.492;13.506;2023-04-29T04:42:59;5.40;99.90
19781;DHT22;10050;55.492;13.506;2023-04-29T04:45:27;5.40;99.90
19781;DHT22;10050;55.492;13.506;2023-04-29T04:47:54;5.50;99.90
19781;DHT22;10050;55.492;13.506;2023-04-29T04:50:20;5.50;99.90
19781;DHT22;10050;55.492;13.506;2023-04-29T04:52:45;5.60;99.90
19781;DHT22;10050;55.492;13.506;2023-04-29T04:55:11;5.60;99.90
19781;DHT22;10050;55.492;13.506;2023-04-29T04:57:36;5.70;99.90
19781;DHT22;10050;55.492;13.506;2023-04-29T05:00:02;5.80;99.90
19781;DHT22;10050;55.492;13.506;2023-04-29T05:02:29;5.80;99.90
19781;DHT22;10050;55.492;13.506;2023-04-29T05:04:55;5.90;99.90
19781;DHT22;10050;55.492;13.506;2023-04-29T05:07:21;6.00;99.90
19781;DHT22;10050;55.492;13.506;2023-04-29T05:09:46;6.10;99.90
19781;DHT22;10050;55.492;13.506;2023-04-29T05:12:12;6.30;99.90
19781;DHT22;10050;55.492;13.506;2023-04-29T05:14:38;6.40;99.90
19781;DHT22;10050;55.492;13.506;2023-04-29T05:17:04;6.50;99.90
19781;DHT22;10050;55.492;13.506;2023-04-29T05:19:29;6.60;99.90
19781;DHT22;10050;55.492;13.506;2023-04-29T05:21:55;6.70;99.90
19781;DHT22;10050;55.492;13.506;2023-04-29T05:24:21;6.80;99.90
19781;DHT22;10050;55.492;13.506;2023-04-29T05:26:47;6.80;99.90
19781;DHT22;10050;55.492;13.506;2023-04-29T05:29:14;6.90;99.90
19781;DHT22;10050;55.492;13.506;2023-04-29T05:31:40;7.00;99.90
19781;DHT22;10050;55.492;13.506;2023-04-29T05:34:06;7.10;99.90
19781;DHT22;10050;55.492;13.506;2023-04-29T05:36:31;7.20;99.90
19781;DHT22;10050;55.492;13.506;2023-04-29T05:38:57;7.30;99.90
19781;DHT22;10050;55.492;13.506;2023-04-29T05:41:23;7.40;99.90
19781;DHT22;10050;55.492;13.506;2023-04-29T05:43:50;7.40;99.90
19781;DHT22;10050;55.492;13.506;2023-04-29T05:46:15;7.60;99.90
19781;DHT22;10050;55.492;13.506;2023-04-29T05:48:41;7.60;99.90
19781;DHT22;10050;55.492;13.506;2023-04-29T05:51:07;7.90;99.90
19781;DHT22;10050;55.492;13.506;2023-04-29T05:53:33;8.00;99.90
19781;DHT22;10050;55.492;13.506;2023-04-29T05:56:00;8.10;99.90
19781;DHT22;10050;55.492;13.506;2023-04-29T05:58:29;8.40;99.90
19781;DHT22;10050;55.492;13.506;2023-04-29T06:00:55;8.70;99.90
19781;DHT22;10050;55.492;13.506;2023-04-29T06:03:21;9.00;99.90
19781;DHT22;10050;55.492;13.506;2023-04-29T06:05:46;9.00;99.90
19781;DHT22;10050;55.492;13.506;2023-04-29T06:08:12;9.10;99.90
19781;DHT22;10050;55.492;13.506;2023-04-29T06:10:38;9.30;99.90
19781;DHT22;10050;55.492;13.506;2023-04-29T06:13:04;9.20;99.90
19781;DHT22;10050;55.492;13.506;2023-04-29T06:15:29;9.20;99.90
19781;DHT22;10050;55.492;13.506;2023-04-29T06:17:55;9.30;99.90
19781;DHT22;10050;55.492;13.506;2023-04-29T06:20:20;9.40;99.90
19781;DHT22;10050;55.492;13.506;2023-04-29T06:22:46;9.50;99.90
19781;DHT22;10050;55.492;13.506;2023-04-29T06:25:12;9.50;99.90
19781;DHT22;10050;55.492;13.506;2023-04-29T06:27:38;9.70;99.90
19781;DHT22;10050;55.492;13.506;2023-04-29T06:30:04;10.30;99.90
19781;DHT22;10050;55.492;13.506;2023-04-29T06:32:30;11.20;99.90
19781;DHT22;10050;55.492;13.506;2023-04-29T06:34:55;12.20;99.90
19781;DHT22;10050;55.492;13.506;2023-04-29T06:37:21;13.00;99.90
19781;DHT22;10050;55.492;13.506;2023-04-29T06:39:47;13.60;99.90
19781;DHT22;10050;55.492;13.506;2023-04-29T06:42:12;13.90;99.90
19781;DHT22;10050;55.492;13.506;2023-04-29T06:44:38;14.60;99.90
19781;DHT22;10050;55.492;13.506;2023-04-29T06:47:04;14.70;99.90
19781;DHT22;10050;55.492;13.506;2023-04-29T06:49:29;15.00;99.90
19781;DHT22;10050;55.492;13.506;2023-04-29T06:51:55;14.90;99.90
19781;DHT22;10050;55.492;13.506;2023-04-29T06:54:21;15.00;99.90
19781;DHT22;10050;55.492;13.506;2023-04-29T06:56:46;15.20;99.90
19781;DHT22;10050;55.492;13.506;2023-04-29T06:59:12;15.50;99.90
19781;DHT22;10050;55.492;13.506;2023-04-29T07:01:40;15.70;99.90
19781;DHT22;10050;55.492;13.506;2023-04-29T07:04:05;15.80;99.90
19781;DHT22;10050;55.492;13.506;2023-04-29T07:06:31;15.70;99.90
19781;DHT22;10050;55.492;13.506;2023-04-29T07:08:57;15.90;99.90
19781;DHT22;10050;55.492;13.506;2023-04-29T07:11:23;16.10;99.90
19781;DHT22;10050;55.492;13.506;2023-04-29T07:13:51;16.30;99.90
19781;DHT22;10050;55.492;13.506;2023-04-29T07:16:18;16.40;99.90
19781;DHT22;10050;55.492;13.506;2023-04-29T07:18:49;16.70;99.90
19781;DHT22;10050;55.492;13.506;2023-04-29T07:21:15;16.80;99.90
19781;DHT22;10050;55.492;13.506;2023-04-29T07:23:41;16.90;99.90
19781;DHT22;10050;55.492;13.506;2023-04-29T07:28:36;17.40;99.90
19781;DHT22;10050;55.492;13.506;2023-04-29T07:31:01;17.60;99.90
19781;DHT22;10050;55.492;13.506;2023-04-29T07:33:27;17.90;99.90
19781;DHT22;10050;55.492;13.506;2023-04-29T07:35:53;18.00;99.90
19781;DHT22;10050;55.492;13.506;2023-04-29T07:38:18;18.20;99.90
19781;DHT22;10050;55.492;13.506;2023-04-29T07:40:45;18.50;99.90
19781;DHT22;10050;55.492;13.506;2023-04-29T07:43:11;19.00;99.90
19781;DHT22;10050;55.492;13.506;2023-04-29T07:45:37;19.20;99.90
19781;DHT22;10050;55.492;13.506;2023-04-29T07:48:04;19.50;99.90
19781;DHT22;10050;55.492;13.506;2023-04-29T07:50:33;19.80;99.90
19781;DHT22;10050;55.492;13.506;2023-04-29T07:52:59;20.00;99.90
19781;DHT22;10050;55.492;13.506;2023-04-29T07:55:27;20.40;99.90
19781;DHT22;10050;55.492;13.506;2023-04-29T07:57:55;20.40;99.90
19781;DHT22;10050;55.492;13.506;2023-04-29T08:00:21;20.50;99.90
19781;DHT22;10050;55.492;13.506;2023-04-29T08:02:51;20.70;99.90
19781;DHT22;10050;55.492;13.506;2023-04-29T08:05:17;20.80;99.90
19781;DHT22;10050;55.492;13.506;2023-04-29T08:07:46;20.90;99.90
19781;DHT22;10050;55.492;13.506;2023-04-29T08:10:13;21.00;99.00
19781;DHT22;10050;55.492;13.506;2023-04-29T08:12:39;21.20;98.30
19781;DHT22;10050;55.492;13.506;2023-04-29T08:15:06;21.40;99.90
19781;DHT22;10050;55.492;13.506;2023-04-29T08:17:32;21.10;98.40
19781;DHT22;10050;55.492;13.506;2023-04-29T08:19:58;21.30;99.60
19781;DHT22;10050;55.492;13.506;2023-04-29T08:22:23;21.40;99.90
19781;DHT22;10050;55.492;13.506;2023-04-29T08:24:49;21.60;99.90
19781;DHT22;10050;55.492;13.506;2023-04-29T08:27:15;21.70;99.40
19781;DHT22;10050;55.492;13.506;2023-04-29T08:29:41;21.90;96.80
19781;DHT22;10050;55.492;13.506;2023-04-29T08:32:07;21.90;98.30
19781;DHT22;10050;55.492;13.506;2023-04-29T08:34:33;22.00;97.20
19781;DHT22;10050;55.492;13.506;2023-04-29T08:37:01;21.80;97.30
19781;DHT22;10050;55.492;13.506;2023-04-29T08:39:30;21.90;97.20
19781;DHT22;10050;55.492;13.506;2023-04-29T08:41:56;21.90;96.80
19781;DHT22;10050;55.492;13.506;2023-04-29T08:44:26;21.80;96.20
19781;DHT22;10050;55.492;13.506;2023-04-29T08:46:52;22.00;95.60
19781;DHT22;10050;55.492;13.506;2023-04-29T08:49:18;22.00;92.20
19781;DHT22;10050;55.492;13.506;2023-04-29T08:51:46;22.10;94.70
19781;DHT22;10050;55.492;13.506;2023-04-29T08:54:12;22.30;94.00
19781;DHT22;10050;55.492;13.506;2023-04-29T08:56:38;22.40;95.20
19781;DHT22;10050;55.492;13.506;2023-04-29T08:59:08;22.60;94.70
19781;DHT22;10050;55.492;13.506;2023-04-29T09:01:35;22.80;94.10
19781;DHT22;10050;55.492;13.506;2023-04-29T09:04:11;22.70;91.90
19781;DHT22;10050;55.492;13.506;2023-04-29T09:06:38;22.60;91.20
19781;DHT22;10050;55.492;13.506;2023-04-29T09:09:04;22.60;93.00
19781;DHT22;10050;55.492;13.506;2023-04-29T09:11:31;22.70;94.60
19781;DHT22;10050;55.492;13.506;2023-04-29T09:13:59;22.70;93.00
19781;DHT22;10050;55.492;13.506;2023-04-29T09:16:26;23.10;93.50
19781;DHT22;10050;55.492;13.506;2023-04-29T09:18:52;23.20;94.10
19781;DHT22;10050;55.492;13.506;2023-04-29T09:21:29;22.90;93.00
19781;DHT22;10050;55.492;13.506;2023-04-29T09:23:59;22.70;93.10
19781;DHT22;10050;55.492;13.506;2023-04-29T09:26:25;22.70;93.50
19781;DHT22;10050;55.492;13.506;2023-04-29T09:29:12;22.80;93.80
19781;DHT22;10050;55.492;13.506;2023-04-29T09:31:43;22.90;92.80
19781;DHT22;10050;55.492;13.506;2023-04-29T09:34:09;23.00;93.50
19781;DHT22;10050;55.492;13.506;2023-04-29T09:39:19;23.10;91.80
19781;DHT22;10050;55.492;13.506;2023-04-29T09:44:21;23.40;92.10
19781;DHT22;10050;55.492;13.506;2023-04-29T09:47:04;23.10;93.00
19781;DHT22;10050;55.492;13.506;2023-04-29T09:49:33;22.90;92.20
19781;DHT22;10050;55.492;13.506;2023-04-29T09:52:11;22.70;91.80
19781;DHT22;10050;55.492;13.506;2023-04-29T09:54:38;22.40;92.40
19781;DHT22;10050;55.492;13.506;2023-04-29T09:57:05;22.30;92.60
19781;DHT22;10050;55.492;13.506;2023-04-29T09:59:32;21.90;92.20
19781;DHT22;10050;55.492;13.506;2023-04-29T10:02:01;21.50;92.40
19781;DHT22;10050;55.492;13.506;2023-04-29T10:04:34;21.10;92.50
19781;DHT22;10050;55.492;13.506;2023-04-29T10:07:01;21.00;91.90
19781;DHT22;10050;55.492;13.506;2023-04-29T10:09:27;21.00;93.20
19781;DHT22;10050;55.492;13.506;2023-04-29T10:11:53;20.80;93.90
19781;DHT22;10050;55.492;13.506;2023-04-29T10:14:23;21.20;94.80
19781;DHT22;10050;55.492;13.506;2023-04-29T10:17:01;21.70;94.10
19781;DHT22;10050;55.492;13.506;2023-04-29T10:19:39;21.90;93.10
19781;DHT22;10050;55.492;13.506;2023-04-29T10:22:13;22.10;92.60
19781;DHT22;10050;55.492;13.506;2023-04-29T10:24:41;22.20;92.20
19781;DHT22;10050;55.492;13.506;2023-04-29T10:27:10;22.30;92.80
19781;DHT22;10050;55.492;13.506;2023-04-29T10:29:37;22.10;93.20
19781;DHT22;10050;55.492;13.506;2023-04-29T10:32:06;22.10;92.90
19781;DHT22;10050;55.492;13.506;2023-04-29T10:34:36;22.00;93.00
19781;DHT22;10050;55.492;13.506;2023-04-29T10:37:04;22.00;93.00
19781;DHT22;10050;55.492;13.506;2023-04-29T10:42:25;21.90;93.00
19781;DHT22;10050;55.492;13.506;2023-04-29T10:45:27;22.00;92.80
19781;DHT22;10050;55.492;13.506;2023-04-29T10:50:32;21.90;93.30
19781;DHT22;10050;55.492;13.506;2023-04-29T10:53:01;21.70;93.00
19781;DHT22;10050;55.492;13.506;2023-04-29T10:55:27;21.50;93.30
19781;DHT22;10050;55.492;13.506;2023-04-29T10:57:53;21.50;94.10
19781;DHT22;10050;55.492;13.506;2023-04-29T11:00:23;21.40;93.40
19781;DHT22;10050;55.492;13.506;2023-04-29T11:02:52;21.00;93.40
19781;DHT22;10050;55.492;13.506;2023-04-29T11:05:32;20.90;94.20
19781;DHT22;10050;55.492;13.506;2023-04-29T11:08:18;20.60;94.40
19781;DHT22;10050;55.492;13.506;2023-04-29T11:10:59;20.50;92.90
19781;DHT22;10050;55.492;13.506;2023-04-29T11:13:28;20.40;95.40
19781;DHT22;10050;55.492;13.506;2023-04-29T11:16:08;20.30;94.80
19781;DHT22;10050;55.492;13.506;2023-04-29T11:18:35;20.20;96.00
19781;DHT22;10050;55.492;13.506;2023-04-29T11:23:37;19.60;94.80
19781;DHT22;10050;55.492;13.506;2023-04-29T11:26:03;19.70;95.90
19781;DHT22;10050;55.492;13.506;2023-04-29T11:28:30;19.90;98.40
19781;DHT22;10050;55.492;13.506;2023-04-29T11:30:59;19.90;97.80
19781;DHT22;10050;55.492;13.506;2023-04-29T11:33:26;19.90;98.10
19781;DHT22;10050;55.492;13.506;2023-04-29T11:35:55;19.70;98.00
19781;DHT22;10050;55.492;13.506;2023-04-29T11:38:28;19.60;98.00
19781;DHT22;10050;55.492;13.506;2023-04-29T11:40:55;19.40;97.30
19781;DHT22;10050;55.492;13.506;2023-04-29T11:43:22;19.40;98.50
19781;DHT22;10050;55.492;13.506;2023-04-29T11:45:49;19.30;98.40
19781;DHT22;10050;55.492;13.506;2023-04-29T11:48:19;19.00;98.90
19781;DHT22;10050;55.492;13.506;2023-04-29T11:50:50;19.00;99.00
19781;DHT22;10050;55.492;13.506;2023-04-29T11:53:19;19.10;98.20
19781;DHT22;10050;55.492;13.506;2023-04-29T11:55:45;18.90;99.90
19781;DHT22;10050;55.492;13.506;2023-04-29T11:58:11;18.90;99.70
19781;DHT22;10050;55.492;13.506;2023-04-29T12:00:37;19.00;99.90
19781;DHT22;10050;55.492;13.506;2023-04-29T12:03:19;18.90;99.00
19781;DHT22;10050;55.492;13.506;2023-04-29T12:05:55;18.70;99.80
19781;DHT22;10050;55.492;13.506;2023-04-29T12:08:25;18.70;99.80
19781;DHT22;10050;55.492;13.506;2023-04-29T12:10:55;18.80;99.90
19781;DHT22;10050;55.492;13.506;2023-04-29T12:13:26;18.80;99.60
19781;DHT22;10050;55.492;13.506;2023-04-29T12:15:53;18.70;99.90
19781;DHT22;10050;55.492;13.506;2023-04-29T12:18:19;18.80;99.90
19781;DHT22;10050;55.492;13.506;2023-04-29T12:20:48;18.80;99.90
19781;DHT22;10050;55.492;13.506;2023-04-29T12:23:20;18.70;99.90
19781;DHT22;10050;55.492;13.506;2023-04-29T12:25:56;18.70;99.90
19781;DHT22;10050;55.492;13.506;2023-04-29T12:28:23;18.70;99.90
19781;DHT22;10050;55.492;13.506;2023-04-29T12:30:52;18.70;99.90
19781;DHT22;10050;55.492;13.506;2023-04-29T12:33:28;18.80;99.90
19781;DHT22;10050;55.492;13.506;2023-04-29T12:35:56;18.80;99.90
19781;DHT22;10050;55.492;13.506;2023-04-29T12:38:31;18.70;99.90
19781;DHT22;10050;55.492;13.506;2023-04-29T12:40:59;18.60;99.90
19781;DHT22;10050;55.492;13.506;2023-04-29T12:43:30;18.70;99.90
19781;DHT22;10050;55.492;13.506;2023-04-29T12:46:03;18.60;99.90
19781;DHT22;10050;55.492;13.506;2023-04-29T12:48:33;18.70;99.90
19781;DHT22;10050;55.492;13.506;2023-04-29T12:51:00;18.80;99.90
19781;DHT22;10050;55.492;13.506;2023-04-29T12:53:27;18.80;99.90
19781;DHT22;10050;55.492;13.506;2023-04-29T12:55:53;19.00;99.90
19781;DHT22;10050;55.492;13.506;2023-04-29T12:58:19;19.20;99.90
19781;DHT22;10050;55.492;13.506;2023-04-29T13:00:48;19.30;99.90
19781;DHT22;10050;55.492;13.506;2023-04-29T13:03:14;19.10;99.90
19781;DHT22;10050;55.492;13.506;2023-04-29T13:05:40;19.00;99.90
19781;DHT22;10050;55.492;13.506;2023-04-29T13:08:06;18.80;99.90
19781;DHT22;10050;55.492;13.506;2023-04-29T13:10:33;18.60;99.90
19781;DHT22;10050;55.492;13.506;2023-04-29T13:12:59;18.20;99.90
19781;DHT22;10050;55.492;13.506;2023-04-29T13:15:26;18.00;99.90
19781;DHT22;10050;55.492;13.506;2023-04-29T13:17:52;17.80;99.90
19781;DHT22;10050;55.492;13.506;2023-04-29T13:20:18;17.60;99.90
19781;DHT22;10050;55.492;13.506;2023-04-29T13:22:44;17.40;99.90
19781;DHT22;10050;55.492;13.506;2023-04-29T13:25:10;17.30;99.90
19781;DHT22;10050;55.492;13.506;2023-04-29T13:27:37;17.20;99.90
19781;DHT22;10050;55.492;13.506;2023-04-29T13:30:06;17.10;99.90
19781;DHT22;10050;55.492;13.506;2023-04-29T13:32:32;17.20;99.90
19781;DHT22;10050;55.492;13.506;2023-04-29T13:34:57;17.20;99.90
19781;DHT22;10050;55.492;13.506;2023-04-29T13:37:23;17.10;99.90
19781;DHT22;10050;55.492;13.506;2023-04-29T13:39:51;16.90;99.90
19781;DHT22;10050;55.492;13.506;2023-04-29T13:42:19;16.70;99.90
19781;DHT22;10050;55.492;13.506;2023-04-29T13:44:45;16.50;99.90
19781;DHT22;10050;55.492;13.506;2023-04-29T13:47:14;16.30;99.90
19781;DHT22;10050;55.492;13.506;2023-04-29T13:49:40;16.20;99.90
19781;DHT22;10050;55.492;13.506;2023-04-29T13:52:09;16.10;99.90
19781;DHT22;10050;55.492;13.506;2023-04-29T13:54:35;16.20;99.90
19781;DHT22;10050;55.492;13.506;2023-04-29T13:57:01;16.60;99.90
19781;DHT22;10050;55.492;13.506;2023-04-29T13:59:34;16.60;99.90
19781;DHT22;10050;55.492;13.506;2023-04-29T14:02:07;16.50;99.90
19781;DHT22;10050;55.492;13.506;2023-04-29T14:04:32;16.30;99.90
19781;DHT22;10050;55.492;13.506;2023-04-29T14:07:00;16.10;99.90
19781;DHT22;10050;55.492;13.506;2023-04-29T14:09:26;16.00;99.90
19781;DHT22;10050;55.492;13.506;2023-04-29T14:11:52;15.80;99.90
19781;DHT22;10050;55.492;13.506;2023-04-29T14:14:18;15.70;99.90
19781;DHT22;10050;55.492;13.506;2023-04-29T14:16:44;15.60;99.90
19781;DHT22;10050;55.492;13.506;2023-04-29T14:19:10;15.50;99.90
19781;DHT22;10050;55.492;13.506;2023-04-29T14:21:36;15.50;99.90
19781;DHT22;10050;55.492;13.506;2023-04-29T14:24:02;15.80;99.90
19781;DHT22;10050;55.492;13.506;2023-04-29T14:26:28;15.90;99.90
19781;DHT22;10050;55.492;13.506;2023-04-29T14:28:55;15.90;99.90
19781;DHT22;10050;55.492;13.506;2023-04-29T14:31:30;15.80;99.90
19781;DHT22;10050;55.492;13.506;2023-04-29T14:33:56;15.70;99.90
19781;DHT22;10050;55.492;13.506;2023-04-29T14:36:24;15.70;99.90
19781;DHT22;10050;55.492;13.506;2023-04-29T14:38:51;15.60;99.90
19781;DHT22;10050;55.492;13.506;2023-04-29T14:41:17;15.60;99.90
19781;DHT22;10050;55.492;13.506;2023-04-29T14:43:43;15.70;99.90
19781;DHT22;10050;55.492;13.506;2023-04-29T14:46:08;15.70;99.90
19781;DHT22;10050;55.492;13.506;2023-04-29T14:48:34;15.70;99.90
19781;DHT22;10050;55.492;13.506;2023-04-29T14:51:00;15.60;99.90
19781;DHT22;10050;55.492;13.506;2023-04-29T14:53:26;15.60;99.90
19781;DHT22;10050;55.492;13.506;2023-04-29T14:55:52;15.60;99.90
19781;DHT22;10050;55.492;13.506;2023-04-29T14:58:18;15.60;99.90
19781;DHT22;10050;55.492;13.506;2023-04-29T15:00:43;15.60;99.90
19781;DHT22;10050;55.492;13.506;2023-04-29T15:03:09;15.60;99.90
19781;DHT22;10050;55.492;13.506;2023-04-29T15:05:35;15.60;99.90
19781;DHT22;10050;55.492;13.506;2023-04-29T15:08:00;15.50;99.90
19781;DHT22;10050;55.492;13.506;2023-04-29T15:10:29;15.50;99.90
19781;DHT22;10050;55.492;13.506;2023-04-29T15:12:55;15.60;99.90
19781;DHT22;10050;55.492;13.506;2023-04-29T15:15:21;15.40;99.90
19781;DHT22;10050;55.492;13.506;2023-04-29T15:17:48;15.30;99.90
19781;DHT22;10050;55.492;13.506;2023-04-29T15:20:14;15.20;99.90
19781;DHT22;10050;55.492;13.506;2023-04-29T15:22:40;15.10;99.90
19781;DHT22;10050;55.492;13.506;2023-04-29T15:25:07;15.10;99.90
19781;DHT22;10050;55.492;13.506;2023-04-29T15:27:34;15.00;99.90
19781;DHT22;10050;55.492;13.506;2023-04-29T15:29:59;14.90;99.90
19781;DHT22;10050;55.492;13.506;2023-04-29T15:32:25;15.00;99.90
19781;DHT22;10050;55.492;13.506;2023-04-29T15:34:57;15.00;99.90
19781;DHT22;10050;55.492;13.506;2023-04-29T15:37:22;14.90;99.90
19781;DHT22;10050;55.492;13.506;2023-04-29T15:39:49;14.80;99.90
19781;DHT22;10050;55.492;13.506;2023-04-29T15:42:15;14.70;99.90
19781;DHT22;10050;55.492;13.506;2023-04-29T15:44:41;14.50;99.90
19781;DHT22;10050;55.492;13.506;2023-04-29T15:47:06;14.50;99.90
19781;DHT22;10050;55.492;13.506;2023-04-29T15:49:32;14.50;99.90